createdAt,value
2018-05-18T00:01:51.931Z,65.40
2018-05-18T00:04:19.049Z,65.30
2018-05-18T00:06:46.166Z,65.30
2018-05-18T00:09:14.046Z,65.30
2018-05-18T00:11:42.228Z,65.40
2018-05-18T00:14:09.336Z,65.30
2018-05-18T00:16:36.465Z,65.10
2018-05-18T00:19:03.688Z,65.20
2018-05-18T00:21:30.856Z,65.20
2018-05-18T00:23:58.092Z,65.10
2018-05-18T00:26:25.242Z,65.00
2018-05-18T00:28:52.366Z,65.00
2018-05-18T00:31:20.272Z,65.00
2018-05-18T00:33:47.383Z,64.90
2018-05-18T00:36:15.275Z,65.20
2018-05-18T00:38:42.456Z,65.10
2018-05-18T00:41:09.578Z,65.10
2018-05-18T00:43:36.724Z,65.00
2018-05-18T00:46:03.839Z,65.00
2018-05-18T00:48:31.743Z,64.90
2018-05-18T00:50:59.025Z,65.70
2018-05-18T00:53:26.150Z,64.90
2018-05-18T00:55:53.276Z,64.90
2018-05-18T00:58:21.159Z,64.90
2018-05-18T01:00:48.319Z,64.80
2018-05-18T01:03:15.428Z,65.00
2018-05-18T01:05:43.307Z,65.60
2018-05-18T01:08:11.204Z,65.00
2018-05-18T01:10:38.361Z,64.90
2018-05-18T01:13:05.475Z,64.70
2018-05-18T01:15:33.873Z,64.90
2018-05-18T01:18:00.988Z,64.80
2018-05-18T01:20:28.187Z,64.90
2018-05-18T01:22:55.301Z,64.80
2018-05-18T01:25:23.191Z,64.90
2018-05-18T01:27:50.304Z,64.80
2018-05-18T01:30:17.502Z,64.90
2018-05-18T01:32:44.607Z,64.80
2018-05-18T01:35:12.484Z,65.30
2018-05-18T01:37:40.384Z,64.80
2018-05-18T01:40:07.540Z,64.70
2018-05-18T01:42:34.663Z,64.70
2018-05-18T01:45:01.778Z,64.80
2018-05-18T01:47:29.281Z,64.70
2018-05-18T01:49:56.463Z,64.70
2018-05-18T01:52:23.587Z,64.80
2018-05-18T01:54:50.691Z,64.60
2018-05-18T01:57:17.795Z,64.70
2018-05-18T01:59:45.044Z,64.60
2018-05-18T02:02:12.305Z,64.50
2018-05-18T02:04:39.535Z,64.60
2018-05-18T02:07:06.647Z,64.50
2018-05-18T02:09:33.765Z,64.50
2018-05-18T02:12:00.882Z,64.90
2018-05-18T02:14:28.000Z,64.60
2018-05-18T02:16:55.879Z,65.00
2018-05-18T02:19:23.773Z,64.30
2018-05-18T02:21:50.897Z,64.20
2018-05-18T02:24:18.786Z,64.40
2018-05-18T02:26:45.894Z,64.30
2018-05-18T02:29:12.998Z,64.30
2018-05-18T02:31:40.253Z,65.00
2018-05-18T02:34:07.399Z,64.20
2018-05-18T02:36:34.512Z,64.50
2018-05-18T02:39:02.416Z,64.20
2018-05-18T02:41:30.609Z,64.10
2018-05-18T02:43:57.751Z,64.30
2018-05-18T02:46:24.875Z,64.20
2018-05-18T02:48:52.052Z,64.30
2018-05-18T02:51:19.204Z,64.40
2018-05-18T02:53:46.429Z,64.10
2018-05-18T02:56:13.556Z,64.10
2018-05-18T02:58:41.547Z,64.30
2018-05-18T03:01:08.829Z,64.20
2018-05-18T03:03:36.066Z,64.20
2018-05-18T03:06:03.175Z,64.20
2018-05-18T03:08:31.067Z,63.60
2018-05-18T03:10:58.237Z,63.60
2018-05-18T03:13:25.400Z,62.90
2018-05-18T03:15:52.508Z,63.60
2018-05-18T03:18:19.625Z,63.50
2018-05-18T03:20:47.552Z,64.10
2018-05-18T03:23:14.686Z,63.90
2018-05-18T03:25:41.799Z,63.90
2018-05-18T03:28:08.914Z,63.90
2018-05-18T03:30:36.044Z,64.00
2018-05-18T03:33:03.156Z,63.80
2018-05-18T03:35:31.150Z,63.90
2018-05-18T03:37:58.267Z,63.90
2018-05-18T03:40:25.464Z,63.90
2018-05-18T03:42:52.587Z,63.90
2018-05-18T03:45:20.491Z,63.80
2018-05-18T03:47:47.719Z,63.70
2018-05-18T03:50:14.883Z,63.80
2018-05-18T03:52:41.996Z,63.70
2018-05-18T03:55:10.195Z,63.70
2018-05-18T03:57:37.344Z,63.70
2018-05-18T04:00:04.551Z,63.70
2018-05-18T04:02:37.669Z,63.60
2018-05-18T04:05:11.549Z,63.60
2018-05-18T04:07:44.706Z,63.50
2018-05-18T04:10:11.884Z,63.40
2018-05-18T04:12:38.968Z,63.60
2018-05-18T04:15:06.087Z,63.70
2018-05-18T04:17:33.200Z,63.70
2018-05-18T04:20:01.373Z,63.70
2018-05-18T04:22:28.488Z,63.70
2018-05-18T04:24:56.373Z,63.60
2018-05-18T04:27:23.932Z,63.50
2018-05-18T04:29:51.118Z,63.30
2018-05-18T04:32:18.259Z,63.40
2018-05-18T04:34:45.371Z,64.00
2018-05-18T04:37:12.486Z,63.70
2018-05-18T04:39:39.713Z,63.80
2018-05-18T04:42:06.848Z,64.00
2018-05-18T04:44:34.089Z,63.90
2018-05-18T04:47:01.276Z,64.20
2018-05-18T04:49:28.527Z,64.30
2018-05-18T04:51:55.788Z,64.50
2018-05-18T04:54:22.948Z,64.60
2018-05-18T04:56:50.188Z,64.70
2018-05-18T04:59:17.815Z,64.50
2018-05-18T05:01:45.103Z,64.60
2018-05-18T05:04:12.272Z,65.00
2018-05-18T05:06:40.180Z,65.60
2018-05-18T05:09:07.430Z,65.10
2018-05-18T05:11:34.731Z,65.00
2018-05-18T05:14:02.312Z,65.30
2018-05-18T05:16:30.223Z,65.40
2018-05-18T05:18:57.476Z,65.30
2018-05-18T05:21:25.851Z,65.40
2018-05-18T05:23:53.040Z,65.50
2018-05-18T05:26:20.293Z,65.40
2018-05-18T05:28:47.726Z,65.40
2018-05-18T05:31:14.968Z,65.50
2018-05-18T05:33:42.134Z,65.60
2018-05-18T05:36:09.265Z,65.60
2018-05-18T05:38:36.407Z,65.70
2018-05-18T05:41:03.591Z,65.70
2018-05-18T05:43:30.851Z,65.80
2018-05-18T05:45:58.019Z,65.80
2018-05-18T05:48:26.057Z,65.90
2018-05-18T05:50:53.204Z,65.80
2018-05-18T05:53:20.360Z,65.90
2018-05-18T05:55:47.508Z,66.00
2018-05-18T05:58:14.655Z,66.00
2018-05-18T06:00:41.828Z,65.90
2018-05-18T06:03:08.991Z,65.90
2018-05-18T06:05:36.125Z,66.10
2018-05-18T06:08:03.333Z,66.00
2018-05-18T06:10:30.631Z,65.90
2018-05-18T06:12:57.864Z,65.90
2018-05-18T06:15:25.041Z,65.90
2018-05-18T06:17:52.288Z,65.70
2018-05-18T06:20:20.030Z,65.80
2018-05-18T06:22:47.255Z,65.80
2018-05-18T06:25:14.430Z,65.60
2018-05-18T06:27:41.807Z,65.70
2018-05-18T06:30:09.068Z,65.60
2018-05-18T06:32:37.707Z,65.60
2018-05-18T06:35:05.373Z,65.60
2018-05-18T06:37:32.423Z,65.60
2018-05-18T06:40:00.934Z,65.50
2018-05-18T06:42:28.166Z,65.50
2018-05-18T06:44:55.497Z,65.30
2018-05-18T06:47:23.053Z,65.40
2018-05-18T06:49:50.283Z,65.30
2018-05-18T06:52:18.170Z,65.30
2018-05-18T06:54:45.326Z,65.20
2018-05-18T06:57:12.603Z,65.10
2018-05-18T06:59:39.746Z,65.20
2018-05-18T07:02:06.962Z,65.20
2018-05-18T07:04:34.079Z,65.10
2018-05-18T07:07:01.628Z,65.10
2018-05-18T07:09:29.045Z,65.00
2018-05-18T07:11:56.224Z,65.00
2018-05-18T07:14:23.491Z,65.00
2018-05-18T07:16:50.998Z,65.00
2018-05-18T07:19:18.415Z,65.00
2018-05-18T07:21:45.668Z,65.10
2018-05-18T07:24:12.795Z,65.10
2018-05-18T07:26:39.967Z,65.10
2018-05-18T07:29:07.217Z,65.20
2018-05-18T07:31:34.558Z,65.30
2018-05-18T07:34:01.771Z,65.40
2018-05-18T07:36:28.900Z,65.30
2018-05-18T07:38:57.319Z,66.10
2018-05-18T07:41:25.505Z,65.30
2018-05-18T07:43:52.660Z,65.20
2018-05-18T07:46:19.979Z,65.30
2018-05-18T07:48:47.275Z,65.40
2018-05-18T07:51:14.535Z,65.40
2018-05-18T07:53:42.150Z,65.40
2018-05-18T07:56:10.117Z,65.80
2018-05-18T07:58:37.276Z,65.40
2018-05-18T08:01:06.570Z,65.40
2018-05-18T08:03:33.713Z,65.40
2018-05-18T08:06:00.972Z,65.40
2018-05-18T08:08:28.221Z,65.30
2018-05-18T08:10:55.886Z,65.30
2018-05-18T08:13:23.239Z,65.30
2018-05-18T08:15:50.390Z,65.30
2018-05-18T08:18:17.555Z,65.30
2018-05-18T08:20:45.777Z,66.00
2018-05-18T08:23:13.183Z,65.20
2018-05-18T08:25:40.423Z,65.20
2018-05-18T08:28:07.607Z,65.20
2018-05-18T08:30:40.634Z,65.30
2018-05-18T08:33:08.529Z,65.40
2018-05-18T08:35:35.680Z,65.30
2018-05-18T08:38:02.833Z,65.70
2018-05-18T08:40:30.134Z,65.40
2018-05-18T08:42:57.744Z,65.30
2018-05-18T08:45:25.002Z,65.30
2018-05-18T08:47:52.191Z,65.30
2018-05-18T08:50:19.431Z,65.40
2018-05-18T08:52:46.713Z,65.30
2018-05-18T08:55:14.006Z,65.40
2018-05-18T08:57:41.179Z,65.40
2018-05-18T09:00:08.319Z,65.30
2018-05-18T09:02:35.822Z,65.30
2018-05-18T09:05:03.090Z,65.40
2018-05-18T09:07:31.135Z,65.40
2018-05-18T09:09:58.486Z,65.30
2018-05-18T09:12:25.697Z,65.40
2018-05-18T09:14:53.253Z,65.40
2018-05-18T09:17:20.502Z,65.30
2018-05-18T09:19:47.862Z,65.40
2018-05-18T09:22:15.036Z,65.50
2018-05-18T09:24:42.207Z,65.60
2018-05-18T09:27:09.511Z,65.50
2018-05-18T09:29:36.875Z,65.50
2018-05-18T09:32:03.998Z,65.60
2018-05-18T09:34:31.990Z,65.60
2018-05-18T09:36:59.121Z,65.60
2018-05-18T09:39:26.399Z,65.60
2018-05-18T09:41:53.639Z,66.40
2018-05-18T09:44:20.771Z,65.70
2018-05-18T09:46:48.673Z,65.60
2018-05-18T09:49:15.797Z,65.50
2018-05-18T09:51:43.168Z,65.70
2018-05-18T09:54:10.344Z,65.60
2018-05-18T09:56:37.592Z,65.70
2018-05-18T09:59:04.923Z,65.50
2018-05-18T10:01:32.516Z,65.60
2018-05-18T10:03:59.676Z,65.70
2018-05-18T10:06:26.799Z,65.60
2018-05-18T10:08:53.961Z,65.60
2018-05-18T10:11:21.099Z,65.60
2018-05-18T10:13:48.368Z,65.60
2018-05-18T10:16:16.100Z,65.70
2018-05-18T10:18:43.454Z,66.00
2018-05-18T10:21:10.655Z,65.50
2018-05-18T10:23:37.819Z,65.30
2018-05-18T10:26:05.727Z,64.70
2018-05-18T10:28:32.973Z,64.70
2018-05-18T10:31:01.172Z,65.00
2018-05-18T10:33:28.310Z,65.20
2018-05-18T10:35:55.428Z,65.20
2018-05-18T10:38:23.445Z,65.10
2018-05-18T10:40:50.630Z,65.00
2018-05-18T10:43:17.865Z,65.30
2018-05-18T10:45:44.988Z,65.20
2018-05-18T10:48:12.640Z,65.20
2018-05-18T10:50:39.896Z,65.20
2018-05-18T10:53:07.162Z,65.10
2018-05-18T10:55:34.282Z,65.10
2018-05-18T10:58:01.543Z,65.10
2018-05-18T11:00:28.804Z,65.10
2018-05-18T11:02:56.175Z,65.00
2018-05-18T11:05:23.487Z,65.10
2018-05-18T11:07:51.327Z,65.10
2018-05-18T11:10:18.531Z,65.60
2018-05-18T11:12:45.708Z,65.10
2018-05-18T11:15:13.005Z,65.00
2018-05-18T11:17:40.968Z,65.00
2018-05-18T11:20:08.980Z,65.00
2018-05-18T11:22:36.145Z,64.90
2018-05-18T11:25:03.291Z,65.00
2018-05-18T11:27:30.465Z,64.90
2018-05-18T11:29:57.747Z,64.90
2018-05-18T11:32:25.024Z,64.90
2018-05-18T11:34:52.451Z,64.50
2018-05-18T11:37:20.548Z,64.50
2018-05-18T11:39:47.856Z,64.50
2018-05-18T11:42:16.501Z,64.80
2018-05-18T11:44:43.767Z,64.80
2018-05-18T11:47:10.939Z,64.80
2018-05-18T11:49:38.189Z,64.50
2018-05-18T11:52:05.420Z,64.70
2018-05-18T11:54:32.544Z,64.70
2018-05-18T11:56:59.705Z,64.80
2018-05-18T11:59:27.994Z,64.80
2018-05-18T12:01:55.142Z,64.80
2018-05-18T12:04:22.400Z,64.80
2018-05-18T12:06:49.751Z,64.70
2018-05-18T12:09:16.951Z,64.80
2018-05-18T12:11:44.951Z,64.80
2018-05-18T12:14:12.213Z,64.70
2018-05-18T12:16:40.814Z,64.90
2018-05-18T12:19:08.040Z,64.90
2018-05-18T12:21:35.372Z,65.00
2018-05-18T12:24:03.821Z,65.10
2018-05-18T12:26:30.979Z,65.10
2018-05-18T12:28:58.224Z,65.50
2018-05-18T12:31:25.468Z,66.00
2018-05-18T12:33:54.110Z,65.50
2018-05-18T12:36:21.409Z,65.40
2018-05-18T12:38:48.764Z,65.60
2018-05-18T12:41:15.952Z,65.60
2018-05-18T12:43:43.911Z,65.70
2018-05-18T12:46:11.907Z,65.70
2018-05-18T12:48:39.071Z,65.60
2018-05-18T12:51:07.437Z,65.70
2018-05-18T12:53:34.930Z,65.80
2018-05-18T12:56:02.466Z,65.80
2018-05-18T12:58:29.642Z,65.80
2018-05-18T13:00:56.787Z,65.90
2018-05-18T13:03:23.971Z,66.00
2018-05-18T13:05:52.184Z,66.10
2018-05-18T13:08:19.462Z,66.00
2018-05-18T13:10:47.839Z,66.00
2018-05-18T13:13:15.179Z,66.00
2018-05-18T13:15:42.344Z,66.00
2018-05-18T13:18:09.496Z,66.00
2018-05-18T13:20:36.665Z,66.00
2018-05-18T13:23:03.811Z,66.00
2018-05-18T13:25:31.981Z,65.90
2018-05-18T13:27:59.813Z,65.90
2018-05-18T13:30:27.088Z,65.80
2018-05-18T13:32:54.344Z,65.80
2018-05-18T13:35:21.633Z,65.80
2018-05-18T13:37:49.655Z,66.00
2018-05-18T13:40:16.996Z,65.90
2018-05-18T13:42:44.451Z,65.90
2018-05-18T13:45:11.617Z,65.90
2018-05-18T13:47:38.791Z,65.90
2018-05-18T13:50:05.908Z,65.90
2018-05-18T13:52:33.146Z,65.90
2018-05-18T13:55:00.307Z,65.90
2018-05-18T13:57:27.659Z,65.90
2018-05-18T13:59:54.968Z,65.90
2018-05-18T14:02:22.285Z,65.90
2018-05-18T14:04:49.671Z,66.70
2018-05-18T14:07:16.829Z,65.90
2018-05-18T14:09:44.123Z,66.00
2018-05-18T14:12:11.373Z,66.00
2018-05-18T14:14:38.637Z,66.00
2018-05-18T14:17:05.853Z,66.00
2018-05-18T14:19:33.871Z,66.00
2018-05-18T14:22:01.981Z,65.90
2018-05-18T14:24:29.289Z,65.90
2018-05-18T14:26:56.985Z,66.00
2018-05-18T14:29:24.135Z,66.00
2018-05-18T14:31:51.384Z,66.00
2018-05-18T14:34:18.491Z,65.90
2018-05-18T14:36:45.655Z,66.00
2018-05-18T14:39:12.891Z,65.90
2018-05-18T14:41:40.349Z,65.80
2018-05-18T14:44:07.649Z,65.90
2018-05-18T14:46:35.970Z,66.90
2018-05-18T14:49:03.113Z,66.40
2018-05-18T14:51:30.341Z,66.40
2018-05-18T14:53:57.494Z,66.40
2018-05-18T14:56:24.627Z,67.00
2018-05-18T14:58:51.931Z,66.20
2018-05-18T15:01:19.394Z,66.30
2018-05-18T15:03:46.586Z,66.20
2018-05-18T15:06:13.840Z,66.30
2018-05-18T15:08:41.149Z,66.30
2018-05-18T15:11:08.494Z,66.30
2018-05-18T15:13:35.573Z,66.30
2018-05-18T15:16:03.636Z,66.20
2018-05-18T15:18:30.901Z,66.10
2018-05-18T15:20:58.107Z,66.20
2018-05-18T15:23:26.110Z,66.40
2018-05-18T15:25:53.453Z,66.20
2018-05-18T15:28:20.701Z,66.20
2018-05-18T15:30:47.955Z,66.20
2018-05-18T15:33:15.209Z,66.30
2018-05-18T15:35:42.797Z,66.20
2018-05-18T15:38:09.938Z,66.30
2018-05-18T15:40:37.201Z,66.30
2018-05-18T15:43:04.432Z,66.30
2018-05-18T15:45:31.675Z,66.30
2018-05-18T15:47:58.929Z,66.30
2018-05-18T15:50:26.623Z,66.50
2018-05-18T15:52:53.944Z,66.20
2018-05-18T15:55:21.138Z,66.20
2018-05-18T15:57:48.328Z,66.20
2018-05-18T16:00:16.355Z,66.30
2018-05-18T16:02:43.675Z,66.30
2018-05-18T16:05:10.850Z,66.10
2018-05-18T16:07:38.099Z,66.10
2018-05-18T16:10:05.431Z,66.10
2018-05-18T16:12:32.681Z,66.40
2018-05-18T16:15:00.044Z,66.20
2018-05-18T16:17:27.164Z,66.40
2018-05-18T16:19:55.468Z,66.70
2018-05-18T16:22:22.925Z,66.70
2018-05-18T16:24:50.083Z,66.50
2018-05-18T16:27:17.537Z,66.40
2018-05-18T16:29:45.748Z,66.70
2018-05-18T16:32:12.954Z,66.40
2018-05-18T16:34:40.285Z,66.40
2018-05-18T16:37:08.701Z,66.30
2018-05-18T16:39:37.371Z,66.30
2018-05-18T16:42:04.637Z,66.30
2018-05-18T16:44:31.913Z,66.30
2018-05-18T16:46:59.043Z,66.90
2018-05-18T16:49:27.217Z,67.70
2018-05-18T16:51:54.449Z,68.30
2018-05-18T16:54:21.617Z,68.20
2018-05-18T16:56:48.880Z,68.40
2018-05-18T16:59:16.001Z,68.30
2018-05-18T17:01:43.284Z,69.20
2018-05-18T17:04:10.594Z,70.20
2018-05-18T17:06:38.657Z,71.90
2018-05-18T17:09:05.882Z,71.80
2018-05-18T17:11:33.510Z,71.60
2018-05-18T17:14:00.687Z,71.60
2018-05-18T17:16:27.815Z,71.80
2018-05-18T17:18:54.954Z,71.60
2018-05-18T19:02:45.635Z,69.60
2018-05-18T19:05:12.829Z,69.70
2018-05-18T19:07:40.133Z,69.80
2018-05-18T19:10:07.487Z,70.00
2018-05-18T19:12:34.615Z,69.70
2018-05-18T19:15:02.651Z,69.80
2018-05-18T19:17:29.908Z,69.70
2018-05-18T19:19:57.090Z,69.90
2018-05-18T19:22:25.237Z,70.20
2018-05-18T19:24:52.390Z,70.20
2018-05-18T19:27:20.036Z,70.20
2018-05-18T19:29:47.463Z,70.30
2018-05-18T19:32:14.551Z,70.40
2018-05-18T19:34:42.379Z,70.90
2018-05-18T19:37:10.165Z,70.40
2018-05-18T19:39:37.383Z,70.50
2018-05-18T19:42:05.350Z,70.70
2018-05-18T19:44:33.039Z,70.50
2018-05-18T19:47:00.920Z,70.50
2018-05-18T19:49:28.550Z,70.50
2018-05-18T19:51:55.794Z,70.30
2018-05-18T19:54:23.023Z,70.40
2018-05-18T19:56:51.325Z,70.40
2018-05-18T19:59:20.904Z,70.30
2018-05-18T20:01:49.321Z,70.40
2018-05-18T20:04:17.797Z,71.00
2018-05-18T20:06:46.374Z,70.10
2018-05-18T20:09:14.289Z,70.20
2018-05-18T20:11:42.416Z,70.80
2018-05-18T20:14:11.147Z,70.40
2018-05-18T20:16:40.328Z,70.60
2018-05-18T20:19:08.556Z,70.40
2018-05-18T20:21:36.763Z,71.20
2018-05-18T20:24:04.735Z,70.80
2018-05-18T20:26:33.068Z,70.20
2018-05-18T20:29:01.579Z,70.10
2018-05-18T20:31:29.575Z,70.10
2018-05-18T20:33:57.608Z,69.80
2018-05-18T20:36:25.499Z,70.00
2018-05-18T20:38:53.826Z,70.00
2018-05-18T20:41:21.739Z,70.00
2018-05-18T20:43:49.096Z,69.90
2018-05-18T20:46:16.210Z,70.40
2018-05-18T20:48:44.091Z,69.80
2018-05-18T20:51:11.262Z,69.60
2018-05-18T20:53:38.377Z,69.80
2018-05-18T20:56:06.366Z,69.50
2018-05-18T20:58:33.628Z,69.40
2018-05-18T21:01:01.809Z,69.40
2018-05-18T21:03:28.947Z,69.20
2018-05-18T21:05:56.072Z,69.20
2018-05-18T21:08:23.963Z,69.20
2018-05-18T21:10:51.116Z,69.20
2018-05-18T21:13:18.228Z,69.20
2018-05-18T21:15:46.104Z,69.10
2018-05-18T21:18:13.994Z,69.20
2018-05-18T21:20:41.274Z,69.10
2018-05-18T21:23:08.396Z,69.10
2018-05-18T21:25:35.512Z,68.80
2018-05-18T21:28:02.723Z,68.80
2018-05-18T21:30:30.035Z,68.60
2018-05-18T21:32:57.113Z,68.60
2018-05-18T21:35:24.263Z,68.60
2018-05-18T21:37:51.382Z,68.50
2018-05-18T21:40:19.281Z,68.40
2018-05-18T21:42:46.415Z,68.40
2018-05-18T21:45:13.532Z,68.30
2018-05-18T21:47:40.643Z,68.20
2018-05-18T21:50:07.776Z,68.20
2018-05-18T21:52:34.896Z,68.20
2018-05-18T21:55:02.781Z,68.10
2018-05-18T21:57:29.893Z,68.10
2018-05-18T21:59:57.095Z,68.10
2018-05-18T22:02:24.346Z,68.10
2018-05-18T22:04:51.466Z,68.10
2018-05-18T22:07:19.348Z,68.10
2018-05-18T22:09:46.592Z,68.00
2018-05-18T22:12:13.664Z,68.00
2018-05-18T22:14:40.762Z,68.00
2018-05-18T22:17:07.876Z,68.00
2018-05-18T22:19:35.012Z,68.10
2018-05-18T22:22:02.131Z,67.80
2018-05-18T22:24:30.143Z,67.90
2018-05-18T22:26:57.368Z,67.90
2018-05-18T22:29:24.533Z,68.00
2018-05-18T22:31:51.643Z,67.70
2018-05-18T22:34:19.586Z,67.80
2018-05-18T22:36:46.696Z,67.80
2018-05-18T22:39:13.797Z,67.80
2018-05-18T22:41:40.918Z,67.70
2018-05-18T22:44:08.064Z,67.60
2018-05-18T22:46:35.171Z,67.50
2018-05-18T22:49:02.286Z,67.50
2018-05-18T22:51:30.211Z,67.50
2018-05-18T22:53:57.323Z,67.50
2018-05-18T22:56:25.215Z,67.40
2018-05-18T22:58:52.340Z,67.40
2018-05-18T23:01:20.232Z,67.40
2018-05-18T23:03:47.410Z,67.30
2018-05-18T23:06:14.548Z,67.30
2018-05-18T23:08:41.659Z,67.20
2018-05-18T23:11:09.563Z,68.20
2018-05-18T23:13:36.680Z,67.30
2018-05-18T23:16:04.573Z,67.20
2018-05-18T23:18:31.677Z,67.10
2018-05-18T23:20:58.893Z,67.10
2018-05-18T23:23:26.121Z,67.10
2018-05-18T23:25:53.236Z,67.20
2018-05-18T23:28:21.119Z,67.80
2018-05-18T23:30:49.025Z,67.20
2018-05-18T23:33:16.150Z,67.10
2018-05-18T23:35:43.267Z,67.10
2018-05-18T23:38:10.480Z,67.20
2018-05-18T23:40:37.616Z,67.20
2018-05-18T23:43:04.727Z,67.20
2018-05-18T23:45:32.608Z,67.20
2018-05-18T23:47:59.730Z,67.10
2018-05-18T23:50:26.831Z,67.30
2018-05-18T23:52:53.948Z,67.20
2018-05-18T23:55:21.832Z,67.00
2018-05-18T23:57:48.959Z,66.90
